This demonstration page uses our WeatherBlox Daily Observations layout. Learn more.

41.55636, -103.73856

Hourly Observations for July 29, 2019

Temp ( °F °C ) Dew Point ( °F °C ) Humidity (%) Winds ( mph kmh ) Pressure ( in mb ) Visibility ( mi km ) Precip ( " mm )
1:58 am 01:58 Clear 72 22.1 53 11.8 52 52 E 13 20 30.02 1017 10 16.0934 0 0
2:58 am 02:58 Clear 68 19.9 55 12.7 63 63 E 9 15 30.05 1018 10 16.0934 0 0
3:58 am 03:58 Clear 66 19 54 12.1 64 64 E 10 17 30.06 1018 10 16.0934 0 0
4:58 am 04:58 Clear 63 17.3 53 11.6 69 69 SE 7 11 30.09 1019 10 16.0934 0 0
5:58 am 05:58 Clear 60 15.7 52 11.1 74 74 ESE 8 13 30.1 1019 10 16.0934 0 0
6:58 am 06:58 Clear 59 14.9 52 10.9 77 77 ESE 7 11 30.1 1019 10 16.0934 0 0
7:58 am 07:58 Clear 58 14.4 52 10.9 80 80 SE 5 7 30.11 1020 10 16.0934 0 0
8:58 am 08:58 Partly Cloudy 57 14.1 51 10.7 80 80 SE 6 9 30.1 1019 10 16.0934 0 0
9:58 am 09:58 Clear 57 13.8 51 10.8 82 82 SSE 6 9 30.1 1019 10 16.0934 0 0
10:58 am 10:58 Clear 54 12.4 51 10.6 89 89 S 9 15 30.1 1019 10 16.0934 0 0
11:58 am 11:58 Sunny 57 13.9 53 11.5 86 86 S 13 20 30.07 1018 10 16.0934 0 0
12:58 pm 12:58 Sunny 58 14.4 53 11.9 85 85 S 12 19 30.09 1019 10 16.0934 0 0
1:58 pm 13:58 Sunny 63 17.2 55 13 76 76 S 14 22 30.09 1019 10 16.0934 0 0
2:58 pm 14:58 Sunny 68 19.8 52 11.2 58 58 S 18 30 30.1 1019 10 16.0934 0 0
3:58 pm 15:58 Sunny 71 21.7 56 13.5 60 60 S 21 33 30.06 1018 10 16.0934 0 0
4:58 pm 16:58 Sunny 74 23.4 58 14.4 57 57 S 16 26 30.06 1018 10 16.0934 0 0
5:58 pm 17:58 Sunny 78 25.5 55 12.8 45 45 SSW 13 20 30.05 1018 10 16.0934 0 0
6:58 pm 18:58 Sunny 82 27.7 54 12 38 38 SSW 12 19 30.03 1017 10 16.0934 0 0
7:58 pm 19:58 Sunny 86 29.9 42 5.4 21 21 ENE 5 7 30 1016 10 16.0934 0 0
8:58 pm 20:58 Sunny 86 30.2 35 1.7 16 16 Calm 29.97 1015 10 16.0934 0 0
9:58 pm 21:58 Sunny 87 30.7 39 4.1 18 18 SSE 3 6 29.95 1014 10 16.0934 0 0
11:58 pm 23:58 Mostly Sunny 85 29.3 60 15.4 43 43 SE 17 28 29.92 1013 10 16.0934 0 0

Powered by AerisWeather